sensor_id;sensor_type;location;lat;lon;timestamp;P1;durP1;ratioP1;P2;durP2;ratioP2
15982;SDS011;14442;50.196;8.096;2024-03-23T00:52:34;1.07;;;0.90;;
15982;SDS011;14442;50.196;8.096;2024-03-23T00:55:01;0.60;;;0.60;;
15982;SDS011;14442;50.196;8.096;2024-03-23T00:57:27;0.70;;;0.70;;
15982;SDS011;14442;50.196;8.096;2024-03-23T00:59:54;0.60;;;0.50;;
15982;SDS011;14442;50.196;8.096;2024-03-23T01:02:19;0.70;;;0.60;;
15982;SDS011;14442;50.196;8.096;2024-03-23T01:04:46;0.40;;;0.40;;
15982;SDS011;14442;50.196;8.096;2024-03-23T01:07:12;0.93;;;0.77;;
15982;SDS011;14442;50.196;8.096;2024-03-23T01:09:41;0.60;;;0.60;;
15982;SDS011;14442;50.196;8.096;2024-03-23T01:12:07;0.70;;;0.67;;
15982;SDS011;14442;50.196;8.096;2024-03-23T01:14:33;0.60;;;0.60;;
15982;SDS011;14442;50.196;8.096;2024-03-23T01:17:01;1.30;;;0.70;;
15982;SDS011;14442;50.196;8.096;2024-03-23T01:19:27;0.90;;;0.80;;
15982;SDS011;14442;50.196;8.096;2024-03-23T01:21:53;0.80;;;0.80;;
15982;SDS011;14442;50.196;8.096;2024-03-23T01:24:20;0.60;;;0.60;;
15982;SDS011;14442;50.196;8.096;2024-03-23T01:26:47;0.60;;;0.60;;
15982;SDS011;14442;50.196;8.096;2024-03-23T01:29:14;1.00;;;0.70;;
15982;SDS011;14442;50.196;8.096;2024-03-23T01:31:39;0.60;;;0.60;;
15982;SDS011;14442;50.196;8.096;2024-03-23T01:34:06;0.60;;;0.60;;
15982;SDS011;14442;50.196;8.096;2024-03-23T01:36:32;0.60;;;0.60;;
15982;SDS011;14442;50.196;8.096;2024-03-23T01:38:59;0.87;;;0.87;;
15982;SDS011;14442;50.196;8.096;2024-03-23T01:41:25;0.60;;;0.60;;
15982;SDS011;14442;50.196;8.096;2024-03-23T01:43:54;0.53;;;0.53;;
15982;SDS011;14442;50.196;8.096;2024-03-23T01:46:20;1.27;;;0.50;;
15982;SDS011;14442;50.196;8.096;2024-03-23T01:48:47;0.70;;;0.70;;
15982;SDS011;14442;50.196;8.096;2024-03-23T01:51:13;0.60;;;0.60;;
15982;SDS011;14442;50.196;8.096;2024-03-23T01:53:40;1.17;;;0.63;;
15982;SDS011;14442;50.196;8.096;2024-03-23T01:56:06;1.00;;;0.90;;
15982;SDS011;14442;50.196;8.096;2024-03-23T01:58:33;0.83;;;0.60;;
15982;SDS011;14442;50.196;8.096;2024-03-23T02:01:00;0.73;;;0.73;;
15982;SDS011;14442;50.196;8.096;2024-03-23T02:03:27;1.03;;;1.00;;
15982;SDS011;14442;50.196;8.096;2024-03-23T02:05:53;0.80;;;0.80;;
15982;SDS011;14442;50.196;8.096;2024-03-23T02:08:21;1.70;;;1.07;;
15982;SDS011;14442;50.196;8.096;2024-03-23T02:10:48;1.27;;;0.80;;
15982;SDS011;14442;50.196;8.096;2024-03-23T02:13:15;0.93;;;0.93;;
15982;SDS011;14442;50.196;8.096;2024-03-23T02:15:42;0.70;;;0.70;;
15982;SDS011;14442;50.196;8.096;2024-03-23T02:18:11;0.70;;;0.70;;
15982;SDS011;14442;50.196;8.096;2024-03-23T02:20:36;0.80;;;0.80;;
15982;SDS011;14442;50.196;8.096;2024-03-23T02:23:05;0.80;;;0.80;;
15982;SDS011;14442;50.196;8.096;2024-03-23T02:25:31;0.53;;;0.53;;
15982;SDS011;14442;50.196;8.096;2024-03-23T02:27:58;0.77;;;0.77;;
15982;SDS011;14442;50.196;8.096;2024-03-23T02:30:24;0.67;;;0.67;;
15982;SDS011;14442;50.196;8.096;2024-03-23T02:32:51;0.60;;;0.60;;
15982;SDS011;14442;50.196;8.096;2024-03-23T02:35:17;0.50;;;0.50;;
15982;SDS011;14442;50.196;8.096;2024-03-23T02:37:45;0.70;;;0.70;;
15982;SDS011;14442;50.196;8.096;2024-03-23T02:40:12;0.83;;;0.70;;
15982;SDS011;14442;50.196;8.096;2024-03-23T02:42:39;0.67;;;0.67;;
15982;SDS011;14442;50.196;8.096;2024-03-23T02:45:05;0.70;;;0.70;;
15982;SDS011;14442;50.196;8.096;2024-03-23T02:47:32;1.07;;;0.80;;
15982;SDS011;14442;50.196;8.096;2024-03-23T02:49:58;0.70;;;0.70;;
15982;SDS011;14442;50.196;8.096;2024-03-23T02:52:25;0.97;;;0.97;;
15982;SDS011;14442;50.196;8.096;2024-03-23T02:54:51;0.87;;;0.87;;
15982;SDS011;14442;50.196;8.096;2024-03-23T02:57:19;1.57;;;1.27;;
15982;SDS011;14442;50.196;8.096;2024-03-23T02:59:45;2.13;;;1.07;;
15982;SDS011;14442;50.196;8.096;2024-03-23T03:02:12;1.10;;;1.10;;
15982;SDS011;14442;50.196;8.096;2024-03-23T03:04:38;1.17;;;1.17;;
15982;SDS011;14442;50.196;8.096;2024-03-23T03:07:05;1.50;;;0.87;;
15982;SDS011;14442;50.196;8.096;2024-03-23T03:09:31;0.93;;;0.93;;
15982;SDS011;14442;50.196;8.096;2024-03-23T03:12:00;2.07;;;1.63;;
15982;SDS011;14442;50.196;8.096;2024-03-23T03:14:27;1.20;;;1.03;;
15982;SDS011;14442;50.196;8.096;2024-03-23T03:16:54;2.10;;;1.50;;
15982;SDS011;14442;50.196;8.096;2024-03-23T03:19:20;1.17;;;1.10;;
15982;SDS011;14442;50.196;8.096;2024-03-23T03:21:47;1.10;;;1.10;;
15982;SDS011;14442;50.196;8.096;2024-03-23T03:24:13;1.13;;;1.03;;
15982;SDS011;14442;50.196;8.096;2024-03-23T03:26:40;1.10;;;1.00;;
15982;SDS011;14442;50.196;8.096;2024-03-23T03:29:05;1.80;;;0.70;;
15982;SDS011;14442;50.196;8.096;2024-03-23T03:31:33;0.90;;;0.70;;
15982;SDS011;14442;50.196;8.096;2024-03-23T03:33:59;0.93;;;0.90;;
15982;SDS011;14442;50.196;8.096;2024-03-23T03:36:26;0.87;;;0.73;;
15982;SDS011;14442;50.196;8.096;2024-03-23T03:38:52;0.60;;;0.60;;
15982;SDS011;14442;50.196;8.096;2024-03-23T03:41:18;0.50;;;0.50;;
15982;SDS011;14442;50.196;8.096;2024-03-23T03:43:44;1.03;;;0.70;;
15982;SDS011;14442;50.196;8.096;2024-03-23T03:46:11;0.60;;;0.60;;
15982;SDS011;14442;50.196;8.096;2024-03-23T03:48:38;0.70;;;0.70;;
15982;SDS011;14442;50.196;8.096;2024-03-23T03:51:05;0.50;;;0.50;;
15982;SDS011;14442;50.196;8.096;2024-03-23T03:53:30;0.60;;;0.60;;
15982;SDS011;14442;50.196;8.096;2024-03-23T03:56:00;0.53;;;0.37;;
15982;SDS011;14442;50.196;8.096;2024-03-23T03:58:25;0.43;;;0.43;;
15982;SDS011;14442;50.196;8.096;2024-03-23T04:00:52;0.63;;;0.60;;
15982;SDS011;14442;50.196;8.096;2024-03-23T04:03:18;0.57;;;0.40;;
15982;SDS011;14442;50.196;8.096;2024-03-23T04:05:50;0.43;;;0.40;;
15982;SDS011;14442;50.196;8.096;2024-03-23T04:08:16;0.97;;;0.60;;
15982;SDS011;14442;50.196;8.096;2024-03-23T04:10:43;0.90;;;0.40;;
15982;SDS011;14442;50.196;8.096;2024-03-23T04:13:09;0.33;;;0.33;;
15982;SDS011;14442;50.196;8.096;2024-03-23T04:15:36;0.40;;;0.40;;
15982;SDS011;14442;50.196;8.096;2024-03-23T04:18:02;0.40;;;0.40;;
15982;SDS011;14442;50.196;8.096;2024-03-23T04:20:29;0.40;;;0.40;;
15982;SDS011;14442;50.196;8.096;2024-03-23T04:22:56;0.30;;;0.30;;
15982;SDS011;14442;50.196;8.096;2024-03-23T04:25:22;0.30;;;0.30;;
15982;SDS011;14442;50.196;8.096;2024-03-23T04:27:48;0.33;;;0.33;;
15982;SDS011;14442;50.196;8.096;2024-03-23T04:30:15;0.33;;;0.33;;
15982;SDS011;14442;50.196;8.096;2024-03-23T04:32:41;0.30;;;0.30;;
15982;SDS011;14442;50.196;8.096;2024-03-23T04:35:08;0.30;;;0.30;;
15982;SDS011;14442;50.196;8.096;2024-03-23T04:37:34;0.20;;;0.20;;
15982;SDS011;14442;50.196;8.096;2024-03-23T04:40:03;0.40;;;0.40;;
15982;SDS011;14442;50.196;8.096;2024-03-23T04:42:31;0.20;;;0.20;;
15982;SDS011;14442;50.196;8.096;2024-03-23T04:44:57;0.30;;;0.27;;
15982;SDS011;14442;50.196;8.096;2024-03-23T04:47:24;0.30;;;0.23;;
15982;SDS011;14442;50.196;8.096;2024-03-23T04:49:51;0.30;;;0.30;;
15982;SDS011;14442;50.196;8.096;2024-03-23T04:52:18;0.73;;;0.20;;
15982;SDS011;14442;50.196;8.096;2024-03-23T04:54:44;0.30;;;0.30;;
15982;SDS011;14442;50.196;8.096;2024-03-23T04:57:12;0.20;;;0.20;;
15982;SDS011;14442;50.196;8.096;2024-03-23T04:59:39;0.30;;;0.30;;
15982;SDS011;14442;50.196;8.096;2024-03-23T05:02:04;0.20;;;0.20;;
15982;SDS011;14442;50.196;8.096;2024-03-23T05:04:31;0.20;;;0.20;;
15982;SDS011;14442;50.196;8.096;2024-03-23T05:06:57;0.10;;;0.10;;
15982;SDS011;14442;50.196;8.096;2024-03-23T05:09:24;0.23;;;0.23;;
15982;SDS011;14442;50.196;8.096;2024-03-23T05:11:54;0.20;;;0.20;;
15982;SDS011;14442;50.196;8.096;2024-03-23T05:14:23;0.20;;;0.20;;
15982;SDS011;14442;50.196;8.096;2024-03-23T05:16:48;0.10;;;0.10;;
15982;SDS011;14442;50.196;8.096;2024-03-23T05:19:15;0.10;;;0.10;;
15982;SDS011;14442;50.196;8.096;2024-03-23T05:21:41;0.10;;;0.10;;
15982;SDS011;14442;50.196;8.096;2024-03-23T05:24:08;0.10;;;0.10;;
15982;SDS011;14442;50.196;8.096;2024-03-23T05:26:34;0.13;;;0.10;;
15982;SDS011;14442;50.196;8.096;2024-03-23T05:29:01;0.27;;;0.20;;
15982;SDS011;14442;50.196;8.096;2024-03-23T05:31:28;0.10;;;0.10;;
15982;SDS011;14442;50.196;8.096;2024-03-23T05:33:56;0.10;;;0.10;;
15982;SDS011;14442;50.196;8.096;2024-03-23T05:36:22;0.10;;;0.10;;
15982;SDS011;14442;50.196;8.096;2024-03-23T05:38:49;0.07;;;0.07;;
15982;SDS011;14442;50.196;8.096;2024-03-23T05:41:15;0.10;;;0.10;;
15982;SDS011;14442;50.196;8.096;2024-03-23T05:43:42;0.30;;;0.10;;
15982;SDS011;14442;50.196;8.096;2024-03-23T05:46:08;0.10;;;0.10;;
15982;SDS011;14442;50.196;8.096;2024-03-23T05:48:36;0.13;;;0.10;;
15982;SDS011;14442;50.196;8.096;2024-03-23T05:51:02;0.13;;;0.10;;
15982;SDS011;14442;50.196;8.096;2024-03-23T05:53:29;0.10;;;0.10;;
15982;SDS011;14442;50.196;8.096;2024-03-23T05:56:00;0.00;;;0.00;;
15982;SDS011;14442;50.196;8.096;2024-03-23T05:58:28;0.10;;;0.10;;
15982;SDS011;14442;50.196;8.096;2024-03-23T06:00:56;0.13;;;0.13;;
15982;SDS011;14442;50.196;8.096;2024-03-23T06:03:23;0.10;;;0.00;;
15982;SDS011;14442;50.196;8.096;2024-03-23T06:05:50;0.10;;;0.10;;
15982;SDS011;14442;50.196;8.096;2024-03-23T06:08:18;0.10;;;0.10;;
15982;SDS011;14442;50.196;8.096;2024-03-23T06:10:44;0.10;;;0.10;;
15982;SDS011;14442;50.196;8.096;2024-03-23T06:13:11;0.00;;;0.00;;
15982;SDS011;14442;50.196;8.096;2024-03-23T06:15:37;0.10;;;0.10;;
15982;SDS011;14442;50.196;8.096;2024-03-23T06:18:04;0.10;;;0.10;;
15982;SDS011;14442;50.196;8.096;2024-03-23T06:20:30;0.10;;;0.10;;
15982;SDS011;14442;50.196;8.096;2024-03-23T06:22:58;0.20;;;0.10;;
15982;SDS011;14442;50.196;8.096;2024-03-23T06:25:24;0.10;;;0.10;;
15982;SDS011;14442;50.196;8.096;2024-03-23T06:27:51;0.20;;;0.20;;
15982;SDS011;14442;50.196;8.096;2024-03-23T06:30:17;0.10;;;0.10;;
15982;SDS011;14442;50.196;8.096;2024-03-23T06:32:43;0.20;;;0.20;;
15982;SDS011;14442;50.196;8.096;2024-03-23T06:35:09;0.00;;;0.00;;
15982;SDS011;14442;50.196;8.096;2024-03-23T06:37:36;0.00;;;0.00;;
15982;SDS011;14442;50.196;8.096;2024-03-23T06:40:03;1.33;;;0.10;;
15982;SDS011;14442;50.196;8.096;2024-03-23T06:42:34;0.67;;;0.40;;
15982;SDS011;14442;50.196;8.096;2024-03-23T06:45:00;3.63;;;0.30;;
15982;SDS011;14442;50.196;8.096;2024-03-23T06:47:27;0.50;;;0.20;;
15982;SDS011;14442;50.196;8.096;2024-03-23T06:49:53;0.20;;;0.20;;
15982;SDS011;14442;50.196;8.096;2024-03-23T06:52:19;1.10;;;0.20;;
15982;SDS011;14442;50.196;8.096;2024-03-23T06:54:45;0.10;;;0.07;;
15982;SDS011;14442;50.196;8.096;2024-03-23T06:57:13;1.37;;;0.20;;
15982;SDS011;14442;50.196;8.096;2024-03-23T06:59:39;0.37;;;0.20;;
15982;SDS011;14442;50.196;8.096;2024-03-23T07:02:05;0.73;;;0.30;;
15982;SDS011;14442;50.196;8.096;2024-03-23T07:04:33;0.43;;;0.30;;
15982;SDS011;14442;50.196;8.096;2024-03-23T07:07:00;0.30;;;0.20;;
15982;SDS011;14442;50.196;8.096;2024-03-23T07:09:27;1.03;;;0.30;;
15982;SDS011;14442;50.196;8.096;2024-03-23T07:11:53;2.40;;;0.30;;
15982;SDS011;14442;50.196;8.096;2024-03-23T07:14:21;1.67;;;0.20;;
15982;SDS011;14442;50.196;8.096;2024-03-23T07:16:48;1.80;;;0.20;;
15982;SDS011;14442;50.196;8.096;2024-03-23T07:19:14;1.53;;;0.20;;
15982;SDS011;14442;50.196;8.096;2024-03-23T07:21:41;4.13;;;0.50;;
15982;SDS011;14442;50.196;8.096;2024-03-23T07:24:07;0.60;;;0.30;;
15982;SDS011;14442;50.196;8.096;2024-03-23T07:26:34;2.67;;;0.37;;
15982;SDS011;14442;50.196;8.096;2024-03-23T07:29:00;2.30;;;0.23;;
15982;SDS011;14442;50.196;8.096;2024-03-23T07:31:28;2.43;;;0.50;;
15982;SDS011;14442;50.196;8.096;2024-03-23T07:33:54;3.60;;;0.53;;
15982;SDS011;14442;50.196;8.096;2024-03-23T07:36:20;1.53;;;0.30;;
15982;SDS011;14442;50.196;8.096;2024-03-23T07:38:46;4.83;;;0.50;;
15982;SDS011;14442;50.196;8.096;2024-03-23T07:41:15;0.73;;;0.30;;
15982;SDS011;14442;50.196;8.096;2024-03-23T07:43:42;0.40;;;0.40;;
15982;SDS011;14442;50.196;8.096;2024-03-23T07:46:09;0.40;;;0.30;;
15982;SDS011;14442;50.196;8.096;2024-03-23T07:48:38;0.50;;;0.40;;
15982;SDS011;14442;50.196;8.096;2024-03-23T07:51:07;0.40;;;0.30;;
15982;SDS011;14442;50.196;8.096;2024-03-23T07:53:34;0.50;;;0.37;;
15982;SDS011;14442;50.196;8.096;2024-03-23T07:56:03;1.40;;;0.30;;
15982;SDS011;14442;50.196;8.096;2024-03-23T07:58:30;2.27;;;0.30;;
15982;SDS011;14442;50.196;8.096;2024-03-23T08:01:02;0.93;;;0.37;;
15982;SDS011;14442;50.196;8.096;2024-03-23T08:03:29;0.70;;;0.23;;
15982;SDS011;14442;50.196;8.096;2024-03-23T08:05:57;0.93;;;0.40;;
15982;SDS011;14442;50.196;8.096;2024-03-23T08:08:23;1.63;;;0.40;;
15982;SDS011;14442;50.196;8.096;2024-03-23T08:10:49;0.40;;;0.40;;
15982;SDS011;14442;50.196;8.096;2024-03-23T08:13:16;0.47;;;0.40;;
15982;SDS011;14442;50.196;8.096;2024-03-23T08:15:43;2.10;;;0.47;;
15982;SDS011;14442;50.196;8.096;2024-03-23T08:18:09;2.00;;;0.60;;
15982;SDS011;14442;50.196;8.096;2024-03-23T08:20:36;0.87;;;0.37;;
15982;SDS011;14442;50.196;8.096;2024-03-23T08:23:04;0.87;;;0.33;;
15982;SDS011;14442;50.196;8.096;2024-03-23T08:25:32;1.20;;;0.23;;
15982;SDS011;14442;50.196;8.096;2024-03-23T08:27:58;2.37;;;0.40;;
15982;SDS011;14442;50.196;8.096;2024-03-23T08:30:24;0.67;;;0.30;;
15982;SDS011;14442;50.196;8.096;2024-03-23T08:32:50;0.70;;;0.40;;
15982;SDS011;14442;50.196;8.096;2024-03-23T08:35:17;1.00;;;0.30;;
15982;SDS011;14442;50.196;8.096;2024-03-23T08:37:43;1.90;;;0.40;;
15982;SDS011;14442;50.196;8.096;2024-03-23T08:40:11;1.20;;;0.60;;
15982;SDS011;14442;50.196;8.096;2024-03-23T08:42:37;0.67;;;0.43;;
15982;SDS011;14442;50.196;8.096;2024-03-23T08:45:04;2.37;;;0.50;;
15982;SDS011;14442;50.196;8.096;2024-03-23T08:47:33;0.63;;;0.40;;
15982;SDS011;14442;50.196;8.096;2024-03-23T08:50:00;0.97;;;0.30;;
15982;SDS011;14442;50.196;8.096;2024-03-23T08:52:26;2.13;;;0.37;;
15982;SDS011;14442;50.196;8.096;2024-03-23T08:54:53;0.60;;;0.30;;
15982;SDS011;14442;50.196;8.096;2024-03-23T08:57:22;2.30;;;0.53;;
15982;SDS011;14442;50.196;8.096;2024-03-23T08:59:48;0.67;;;0.43;;
15982;SDS011;14442;50.196;8.096;2024-03-23T09:02:14;1.60;;;0.60;;
15982;SDS011;14442;50.196;8.096;2024-03-23T09:04:40;1.47;;;0.40;;
15982;SDS011;14442;50.196;8.096;2024-03-23T09:07:07;1.13;;;0.57;;
15982;SDS011;14442;50.196;8.096;2024-03-23T09:09:33;2.47;;;0.83;;
15982;SDS011;14442;50.196;8.096;2024-03-23T09:12:00;0.70;;;0.40;;
15982;SDS011;14442;50.196;8.096;2024-03-23T09:14:28;0.87;;;0.57;;
15982;SDS011;14442;50.196;8.096;2024-03-23T09:16:54;1.63;;;0.60;;
15982;SDS011;14442;50.196;8.096;2024-03-23T09:19:21;1.13;;;0.40;;
15982;SDS011;14442;50.196;8.096;2024-03-23T09:21:47;0.83;;;0.33;;
15982;SDS011;14442;50.196;8.096;2024-03-23T09:24:15;2.30;;;0.57;;
15982;SDS011;14442;50.196;8.096;2024-03-23T09:26:40;0.70;;;0.53;;
15982;SDS011;14442;50.196;8.096;2024-03-23T09:29:07;0.70;;;0.53;;
15982;SDS011;14442;50.196;8.096;2024-03-23T09:31:34;0.50;;;0.30;;
15982;SDS011;14442;50.196;8.096;2024-03-23T09:34:03;3.93;;;0.60;;
15982;SDS011;14442;50.196;8.096;2024-03-23T09:36:28;1.17;;;0.40;;
15982;SDS011;14442;50.196;8.096;2024-03-23T09:38:56;6.97;;;0.70;;
15982;SDS011;14442;50.196;8.096;2024-03-23T09:41:22;2.67;;;0.60;;
15982;SDS011;14442;50.196;8.096;2024-03-23T09:43:51;1.20;;;0.47;;
15982;SDS011;14442;50.196;8.096;2024-03-23T09:46:17;1.00;;;0.50;;
15982;SDS011;14442;50.196;8.096;2024-03-23T09:48:46;1.53;;;0.77;;
15982;SDS011;14442;50.196;8.096;2024-03-23T09:51:12;3.17;;;0.50;;
15982;SDS011;14442;50.196;8.096;2024-03-23T09:53:39;2.83;;;1.07;;
15982;SDS011;14442;50.196;8.096;2024-03-23T09:56:06;2.33;;;0.87;;
15982;SDS011;14442;50.196;8.096;2024-03-23T09:58:33;1.57;;;0.70;;
15982;SDS011;14442;50.196;8.096;2024-03-23T10:00:59;2.83;;;0.63;;
15982;SDS011;14442;50.196;8.096;2024-03-23T10:03:26;3.13;;;0.70;;
15982;SDS011;14442;50.196;8.096;2024-03-23T10:06:01;3.73;;;0.67;;
15982;SDS011;14442;50.196;8.096;2024-03-23T10:08:29;3.13;;;0.83;;
15982;SDS011;14442;50.196;8.096;2024-03-23T10:10:55;3.90;;;0.90;;
15982;SDS011;14442;50.196;8.096;2024-03-23T10:13:25;2.83;;;0.60;;
15982;SDS011;14442;50.196;8.096;2024-03-23T10:15:55;2.50;;;0.90;;
15982;SDS011;14442;50.196;8.096;2024-03-23T10:18:23;5.63;;;1.53;;
15982;SDS011;14442;50.196;8.096;2024-03-23T10:21:06;2.73;;;0.87;;
15982;SDS011;14442;50.196;8.096;2024-03-23T10:23:36;4.17;;;1.13;;
15982;SDS011;14442;50.196;8.096;2024-03-23T10:26:13;5.83;;;1.10;;
15982;SDS011;14442;50.196;8.096;2024-03-23T10:28:53;4.10;;;0.87;;
15982;SDS011;14442;50.196;8.096;2024-03-23T10:31:22;4.27;;;0.93;;
15982;SDS011;14442;50.196;8.096;2024-03-23T10:33:49;6.83;;;0.90;;
15982;SDS011;14442;50.196;8.096;2024-03-23T10:36:16;8.00;;;1.70;;
15982;SDS011;14442;50.196;8.096;2024-03-23T10:38:45;6.37;;;1.23;;
15982;SDS011;14442;50.196;8.096;2024-03-23T10:41:11;8.50;;;1.40;;
15982;SDS011;14442;50.196;8.096;2024-03-23T10:43:38;4.07;;;1.00;;
15982;SDS011;14442;50.196;8.096;2024-03-23T10:46:04;4.73;;;1.20;;
15982;SDS011;14442;50.196;8.096;2024-03-23T10:48:32;4.33;;;1.10;;
15982;SDS011;14442;50.196;8.096;2024-03-23T10:50:58;3.77;;;1.00;;
15982;SDS011;14442;50.196;8.096;2024-03-23T10:53:27;4.27;;;1.10;;
15982;SDS011;14442;50.196;8.096;2024-03-23T10:55:54;6.23;;;1.13;;
15982;SDS011;14442;50.196;8.096;2024-03-23T10:58:23;4.00;;;0.90;;
15982;SDS011;14442;50.196;8.096;2024-03-23T11:00:52;3.83;;;0.70;;
15982;SDS011;14442;50.196;8.096;2024-03-23T11:03:29;2.90;;;0.73;;
15982;SDS011;14442;50.196;8.096;2024-03-23T11:05:55;4.30;;;0.83;;
15982;SDS011;14442;50.196;8.096;2024-03-23T11:08:31;3.13;;;0.67;;
15982;SDS011;14442;50.196;8.096;2024-03-23T11:11:13;4.00;;;0.70;;
15982;SDS011;14442;50.196;8.096;2024-03-23T11:13:40;3.17;;;0.77;;
15982;SDS011;14442;50.196;8.096;2024-03-23T11:16:12;1.97;;;0.80;;
15982;SDS011;14442;50.196;8.096;2024-03-23T11:18:40;3.33;;;0.70;;
15982;SDS011;14442;50.196;8.096;2024-03-23T11:21:06;2.20;;;0.63;;
15982;SDS011;14442;50.196;8.096;2024-03-23T11:23:35;1.93;;;0.53;;
15982;SDS011;14442;50.196;8.096;2024-03-23T11:26:00;1.63;;;0.67;;
15982;SDS011;14442;50.196;8.096;2024-03-23T11:28:27;1.30;;;0.60;;
15982;SDS011;14442;50.196;8.096;2024-03-23T11:30:53;3.13;;;0.87;;
15982;SDS011;14442;50.196;8.096;2024-03-23T11:33:20;3.03;;;1.40;;
15982;SDS011;14442;50.196;8.096;2024-03-23T11:35:46;3.73;;;1.07;;
15982;SDS011;14442;50.196;8.096;2024-03-23T11:38:13;4.47;;;0.77;;
15982;SDS011;14442;50.196;8.096;2024-03-23T11:40:41;3.33;;;0.60;;
15982;SDS011;14442;50.196;8.096;2024-03-23T11:43:10;2.57;;;0.60;;
15982;SDS011;14442;50.196;8.096;2024-03-23T11:45:37;2.27;;;0.63;;
15982;SDS011;14442;50.196;8.096;2024-03-23T11:48:06;2.40;;;0.90;;
15982;SDS011;14442;50.196;8.096;2024-03-23T11:50:33;2.70;;;0.57;;
15982;SDS011;14442;50.196;8.096;2024-03-23T11:53:09;1.97;;;0.60;;
15982;SDS011;14442;50.196;8.096;2024-03-23T11:55:45;0.70;;;0.40;;
15982;SDS011;14442;50.196;8.096;2024-03-23T11:58:13;2.43;;;0.73;;
15982;SDS011;14442;50.196;8.096;2024-03-23T12:00:40;1.90;;;0.63;;
15982;SDS011;14442;50.196;8.096;2024-03-23T12:03:07;2.60;;;0.50;;
15982;SDS011;14442;50.196;8.096;2024-03-23T12:05:33;1.53;;;0.50;;
15982;SDS011;14442;50.196;8.096;2024-03-23T12:08:15;1.90;;;0.60;;
15982;SDS011;14442;50.196;8.096;2024-03-23T12:10:47;0.53;;;0.40;;
15982;SDS011;14442;50.196;8.096;2024-03-23T12:13:18;3.27;;;0.60;;
15982;SDS011;14442;50.196;8.096;2024-03-23T12:15:45;1.10;;;0.40;;
15982;SDS011;14442;50.196;8.096;2024-03-23T12:18:13;3.67;;;1.00;;
15982;SDS011;14442;50.196;8.096;2024-03-23T12:20:39;4.30;;;0.70;;
15982;SDS011;14442;50.196;8.096;2024-03-23T12:23:06;2.73;;;0.60;;
15982;SDS011;14442;50.196;8.096;2024-03-23T12:25:36;1.10;;;0.60;;
15982;SDS011;14442;50.196;8.096;2024-03-23T12:28:05;4.97;;;0.70;;
15982;SDS011;14442;50.196;8.096;2024-03-23T12:30:32;5.73;;;0.70;;
15982;SDS011;14442;50.196;8.096;2024-03-23T12:33:00;6.50;;;0.80;;
15982;SDS011;14442;50.196;8.096;2024-03-23T12:35:26;5.97;;;0.70;;
15982;SDS011;14442;50.196;8.096;2024-03-23T12:37:53;7.73;;;0.80;;
15982;SDS011;14442;50.196;8.096;2024-03-23T12:40:18;8.83;;;0.80;;
15982;SDS011;14442;50.196;8.096;2024-03-23T12:42:45;3.13;;;0.60;;
15982;SDS011;14442;50.196;8.096;2024-03-23T12:45:12;3.17;;;0.83;;
15982;SDS011;14442;50.196;8.096;2024-03-23T12:47:39;4.10;;;0.77;;
15982;SDS011;14442;50.196;8.096;2024-03-23T12:50:05;2.83;;;0.57;;
15982;SDS011;14442;50.196;8.096;2024-03-23T12:52:32;0.30;;;0.30;;
15982;SDS011;14442;50.196;8.096;2024-03-23T12:54:58;0.40;;;0.40;;
15982;SDS011;14442;50.196;8.096;2024-03-23T12:57:25;1.03;;;0.43;;
15982;SDS011;14442;50.196;8.096;2024-03-23T12:59:51;1.90;;;0.37;;
15982;SDS011;14442;50.196;8.096;2024-03-23T13:02:20;0.20;;;0.20;;
15982;SDS011;14442;50.196;8.096;2024-03-23T13:04:46;1.40;;;0.30;;
15982;SDS011;14442;50.196;8.096;2024-03-23T13:07:15;0.50;;;0.10;;
15982;SDS011;14442;50.196;8.096;2024-03-23T13:09:42;1.80;;;0.10;;
15982;SDS011;14442;50.196;8.096;2024-03-23T13:12:08;1.67;;;0.10;;
15982;SDS011;14442;50.196;8.096;2024-03-23T13:14:34;2.73;;;0.33;;
15982;SDS011;14442;50.196;8.096;2024-03-23T13:17:01;1.47;;;0.40;;
15982;SDS011;14442;50.196;8.096;2024-03-23T13:19:29;1.13;;;0.30;;
15982;SDS011;14442;50.196;8.096;2024-03-23T13:21:56;4.10;;;0.30;;
15982;SDS011;14442;50.196;8.096;2024-03-23T13:24:22;0.63;;;0.40;;
15982;SDS011;14442;50.196;8.096;2024-03-23T13:26:49;1.70;;;0.63;;
15982;SDS011;14442;50.196;8.096;2024-03-23T13:29:15;1.13;;;0.10;;
15982;SDS011;14442;50.196;8.096;2024-03-23T13:31:42;0.70;;;0.20;;
15982;SDS011;14442;50.196;8.096;2024-03-23T13:34:08;3.17;;;0.30;;
15982;SDS011;14442;50.196;8.096;2024-03-23T13:36:36;3.77;;;0.30;;
15982;SDS011;14442;50.196;8.096;2024-03-23T13:39:02;1.80;;;0.43;;
15982;SDS011;14442;50.196;8.096;2024-03-23T13:41:31;2.40;;;0.33;;
15982;SDS011;14442;50.196;8.096;2024-03-23T13:43:57;3.13;;;0.63;;
15982;SDS011;14442;50.196;8.096;2024-03-23T13:46:23;8.03;;;0.50;;
15982;SDS011;14442;50.196;8.096;2024-03-23T13:48:49;2.13;;;0.20;;
15982;SDS011;14442;50.196;8.096;2024-03-23T13:51:16;4.33;;;0.30;;
15982;SDS011;14442;50.196;8.096;2024-03-23T13:53:51;1.13;;;0.40;;
15982;SDS011;14442;50.196;8.096;2024-03-23T13:56:17;2.20;;;0.40;;
15982;SDS011;14442;50.196;8.096;2024-03-23T13:58:43;1.40;;;0.23;;
15982;SDS011;14442;50.196;8.096;2024-03-23T14:01:12;2.17;;;0.40;;
15982;SDS011;14442;50.196;8.096;2024-03-23T14:03:41;2.03;;;0.30;;
15982;SDS011;14442;50.196;8.096;2024-03-23T14:06:08;2.60;;;0.23;;
15982;SDS011;14442;50.196;8.096;2024-03-23T14:08:34;6.20;;;0.37;;
15982;SDS011;14442;50.196;8.096;2024-03-23T14:11:05;1.47;;;0.30;;
15982;SDS011;14442;50.196;8.096;2024-03-23T14:13:31;1.60;;;0.33;;
15982;SDS011;14442;50.196;8.096;2024-03-23T14:15:58;2.47;;;0.20;;
15982;SDS011;14442;50.196;8.096;2024-03-23T14:18:24;0.70;;;0.20;;
15982;SDS011;14442;50.196;8.096;2024-03-23T14:20:51;0.80;;;0.40;;
15982;SDS011;14442;50.196;8.096;2024-03-23T14:23:18;3.17;;;0.30;;
15982;SDS011;14442;50.196;8.096;2024-03-23T14:25:45;2.10;;;0.20;;
15982;SDS011;14442;50.196;8.096;2024-03-23T14:28:12;1.27;;;0.20;;
15982;SDS011;14442;50.196;8.096;2024-03-23T14:30:41;0.90;;;0.20;;
15982;SDS011;14442;50.196;8.096;2024-03-23T14:33:07;0.70;;;0.20;;
15982;SDS011;14442;50.196;8.096;2024-03-23T14:35:34;0.40;;;0.10;;
15982;SDS011;14442;50.196;8.096;2024-03-23T14:38:00;2.23;;;0.47;;
15982;SDS011;14442;50.196;8.096;2024-03-23T14:40:27;1.03;;;0.20;;
15982;SDS011;14442;50.196;8.096;2024-03-23T14:42:53;0.43;;;0.10;;
15982;SDS011;14442;50.196;8.096;2024-03-23T14:45:21;0.67;;;0.10;;
15982;SDS011;14442;50.196;8.096;2024-03-23T14:47:49;0.77;;;0.20;;
15982;SDS011;14442;50.196;8.096;2024-03-23T14:50:16;1.23;;;0.17;;
15982;SDS011;14442;50.196;8.096;2024-03-23T14:52:42;0.37;;;0.20;;
15982;SDS011;14442;50.196;8.096;2024-03-23T14:55:10;0.60;;;0.30;;
15982;SDS011;14442;50.196;8.096;2024-03-23T14:57:36;0.87;;;0.20;;
15982;SDS011;14442;50.196;8.096;2024-03-23T15:00:04;0.47;;;0.20;;
15982;SDS011;14442;50.196;8.096;2024-03-23T15:02:33;0.40;;;0.20;;
15982;SDS011;14442;50.196;8.096;2024-03-23T15:05:00;0.70;;;0.20;;
15982;SDS011;14442;50.196;8.096;2024-03-23T15:07:25;2.10;;;0.20;;
15982;SDS011;14442;50.196;8.096;2024-03-23T15:09:53;0.70;;;0.20;;
15982;SDS011;14442;50.196;8.096;2024-03-23T15:12:19;0.33;;;0.10;;
15982;SDS011;14442;50.196;8.096;2024-03-23T15:14:46;0.20;;;0.20;;
15982;SDS011;14442;50.196;8.096;2024-03-23T15:17:12;1.90;;;0.20;;
15982;SDS011;14442;50.196;8.096;2024-03-23T15:19:40;0.20;;;0.20;;
15982;SDS011;14442;50.196;8.096;2024-03-23T15:22:07;0.43;;;0.10;;
15982;SDS011;14442;50.196;8.096;2024-03-23T15:24:35;1.43;;;0.20;;
15982;SDS011;14442;50.196;8.096;2024-03-23T15:27:01;0.97;;;0.10;;
15982;SDS011;14442;50.196;8.096;2024-03-23T15:29:28;0.43;;;0.10;;
15982;SDS011;14442;50.196;8.096;2024-03-23T15:31:54;0.10;;;0.10;;
15982;SDS011;14442;50.196;8.096;2024-03-23T15:34:21;0.40;;;0.20;;
15982;SDS011;14442;50.196;8.096;2024-03-23T15:36:49;0.40;;;0.20;;
15982;SDS011;14442;50.196;8.096;2024-03-23T15:39:16;1.13;;;0.10;;